sensor_id;sensor_type;location;lat;lon;timestamp;temperature;humidity
11922;DHT22;6021;51.182;3.160;2023-06-22T00:01:05;16.60;99.90
11922;DHT22;6021;51.182;3.160;2023-06-22T00:03:33;16.70;99.90
11922;DHT22;6021;51.182;3.160;2023-06-22T00:06:02;16.50;99.90
11922;DHT22;6021;51.182;3.160;2023-06-22T00:08:30;16.50;99.90
11922;DHT22;6021;51.182;3.160;2023-06-22T00:10:58;16.50;99.90
11922;DHT22;6021;51.182;3.160;2023-06-22T00:13:27;16.50;99.90
11922;DHT22;6021;51.182;3.160;2023-06-22T00:15:55;16.40;99.90
11922;DHT22;6021;51.182;3.160;2023-06-22T00:18:24;16.40;99.90
11922;DHT22;6021;51.182;3.160;2023-06-22T00:20:55;16.40;99.90
11922;DHT22;6021;51.182;3.160;2023-06-22T00:23:27;16.30;99.90
11922;DHT22;6021;51.182;3.160;2023-06-22T00:25:55;16.30;99.90
11922;DHT22;6021;51.182;3.160;2023-06-22T00:28:23;16.30;99.90
11922;DHT22;6021;51.182;3.160;2023-06-22T00:30:52;16.30;99.90
11922;DHT22;6021;51.182;3.160;2023-06-22T00:33:20;16.30;99.90
11922;DHT22;6021;51.182;3.160;2023-06-22T00:35:48;16.20;99.90
11922;DHT22;6021;51.182;3.160;2023-06-22T00:38:18;16.20;99.90
11922;DHT22;6021;51.182;3.160;2023-06-22T00:40:47;16.30;99.90
11922;DHT22;6021;51.182;3.160;2023-06-22T00:43:15;16.10;99.90
11922;DHT22;6021;51.182;3.160;2023-06-22T00:45:43;16.10;99.90
11922;DHT22;6021;51.182;3.160;2023-06-22T00:48:12;16.10;99.90
11922;DHT22;6021;51.182;3.160;2023-06-22T00:50:42;16.10;99.90
11922;DHT22;6021;51.182;3.160;2023-06-22T00:53:10;16.10;99.90
11922;DHT22;6021;51.182;3.160;2023-06-22T00:55:43;16.10;99.90
11922;DHT22;6021;51.182;3.160;2023-06-22T00:58:14;16.10;99.90
11922;DHT22;6021;51.182;3.160;2023-06-22T01:00:42;16.10;99.90
11922;DHT22;6021;51.182;3.160;2023-06-22T01:03:11;16.10;99.90
11922;DHT22;6021;51.182;3.160;2023-06-22T01:05:40;16.10;99.90
11922;DHT22;6021;51.182;3.160;2023-06-22T01:08:31;16.10;99.90
11922;DHT22;6021;51.182;3.160;2023-06-22T01:13:41;16.00;99.90
11922;DHT22;6021;51.182;3.160;2023-06-22T01:18:42;15.90;99.90
11922;DHT22;6021;51.182;3.160;2023-06-22T01:21:14;15.90;99.90
11922;DHT22;6021;51.182;3.160;2023-06-22T01:23:56;15.90;99.90
11922;DHT22;6021;51.182;3.160;2023-06-22T01:28:59;15.90;99.90
11922;DHT22;6021;51.182;3.160;2023-06-22T01:31:29;15.90;99.90
11922;DHT22;6021;51.182;3.160;2023-06-22T01:34:00;15.80;99.90
11922;DHT22;6021;51.182;3.160;2023-06-22T01:36:30;15.80;99.90
11922;DHT22;6021;51.182;3.160;2023-06-22T01:38:59;15.80;99.90
11922;DHT22;6021;51.182;3.160;2023-06-22T01:41:34;15.80;99.90
11922;DHT22;6021;51.182;3.160;2023-06-22T01:44:01;15.80;99.90
11922;DHT22;6021;51.182;3.160;2023-06-22T01:46:31;15.80;99.90
11922;DHT22;6021;51.182;3.160;2023-06-22T01:49:01;15.80;99.90
11922;DHT22;6021;51.182;3.160;2023-06-22T01:51:30;15.80;99.90
11922;DHT22;6021;51.182;3.160;2023-06-22T01:53:59;15.80;99.90
11922;DHT22;6021;51.182;3.160;2023-06-22T01:56:27;15.80;99.90
11922;DHT22;6021;51.182;3.160;2023-06-22T01:59:09;15.80;99.90
11922;DHT22;6021;51.182;3.160;2023-06-22T02:01:31;15.80;99.90
11922;DHT22;6021;51.182;3.160;2023-06-22T02:04:08;15.80;99.90
11922;DHT22;6021;51.182;3.160;2023-06-22T02:06:38;15.80;99.90
11922;DHT22;6021;51.182;3.160;2023-06-22T02:09:09;15.70;99.90
11922;DHT22;6021;51.182;3.160;2023-06-22T02:11:40;15.80;99.90
11922;DHT22;6021;51.182;3.160;2023-06-22T02:14:09;15.80;99.90
11922;DHT22;6021;51.182;3.160;2023-06-22T02:16:39;15.80;99.90
11922;DHT22;6021;51.182;3.160;2023-06-22T02:19:08;15.80;99.90
11922;DHT22;6021;51.182;3.160;2023-06-22T02:21:36;15.80;99.90
11922;DHT22;6021;51.182;3.160;2023-06-22T02:24:05;15.70;99.90
11922;DHT22;6021;51.182;3.160;2023-06-22T02:26:33;15.70;99.90
11922;DHT22;6021;51.182;3.160;2023-06-22T02:29:02;15.70;99.90
11922;DHT22;6021;51.182;3.160;2023-06-22T02:31:30;15.70;99.90
11922;DHT22;6021;51.182;3.160;2023-06-22T02:33:59;15.70;99.90
11922;DHT22;6021;51.182;3.160;2023-06-22T02:36:28;15.80;99.90
11922;DHT22;6021;51.182;3.160;2023-06-22T02:38:58;15.70;99.90
11922;DHT22;6021;51.182;3.160;2023-06-22T02:41:28;15.70;99.90
11922;DHT22;6021;51.182;3.160;2023-06-22T02:43:56;15.80;99.90
11922;DHT22;6021;51.182;3.160;2023-06-22T02:46:25;15.60;99.90
11922;DHT22;6021;51.182;3.160;2023-06-22T02:48:53;15.70;99.90
11922;DHT22;6021;51.182;3.160;2023-06-22T02:51:22;15.80;99.90
11922;DHT22;6021;51.182;3.160;2023-06-22T02:53:50;15.70;99.90
11922;DHT22;6021;51.182;3.160;2023-06-22T02:56:19;15.80;99.90
11922;DHT22;6021;51.182;3.160;2023-06-22T02:58:49;15.60;99.90
11922;DHT22;6021;51.182;3.160;2023-06-22T03:01:17;15.60;99.90
11922;DHT22;6021;51.182;3.160;2023-06-22T03:03:47;15.60;99.90
11922;DHT22;6021;51.182;3.160;2023-06-22T03:06:16;15.60;99.90
11922;DHT22;6021;51.182;3.160;2023-06-22T03:08:45;15.60;99.90
11922;DHT22;6021;51.182;3.160;2023-06-22T03:11:14;15.60;99.90
11922;DHT22;6021;51.182;3.160;2023-06-22T03:13:42;15.60;99.90
11922;DHT22;6021;51.182;3.160;2023-06-22T03:16:12;15.60;99.90
11922;DHT22;6021;51.182;3.160;2023-06-22T03:18:41;15.60;99.90
11922;DHT22;6021;51.182;3.160;2023-06-22T03:21:09;15.60;99.90
11922;DHT22;6021;51.182;3.160;2023-06-22T03:23:37;15.60;99.90
11922;DHT22;6021;51.182;3.160;2023-06-22T03:26:06;15.50;99.90
11922;DHT22;6021;51.182;3.160;2023-06-22T03:28:34;15.50;99.90
11922;DHT22;6021;51.182;3.160;2023-06-22T03:31:03;15.50;99.90
11922;DHT22;6021;51.182;3.160;2023-06-22T03:33:34;15.50;99.90
11922;DHT22;6021;51.182;3.160;2023-06-22T03:36:02;15.60;99.90
11922;DHT22;6021;51.182;3.160;2023-06-22T03:38:31;15.60;99.90
11922;DHT22;6021;51.182;3.160;2023-06-22T03:40:59;15.60;99.90
11922;DHT22;6021;51.182;3.160;2023-06-22T03:43:27;15.60;99.90
11922;DHT22;6021;51.182;3.160;2023-06-22T03:45:56;15.50;99.90
11922;DHT22;6021;51.182;3.160;2023-06-22T03:48:24;15.50;99.90
11922;DHT22;6021;51.182;3.160;2023-06-22T03:50:52;15.50;99.90
11922;DHT22;6021;51.182;3.160;2023-06-22T03:53:20;15.50;99.90
11922;DHT22;6021;51.182;3.160;2023-06-22T03:55:50;15.40;99.90
11922;DHT22;6021;51.182;3.160;2023-06-22T03:58:19;15.40;99.90
11922;DHT22;6021;51.182;3.160;2023-06-22T04:00:49;15.40;99.90
11922;DHT22;6021;51.182;3.160;2023-06-22T04:03:18;15.30;99.90
11922;DHT22;6021;51.182;3.160;2023-06-22T04:05:47;15.40;99.90
11922;DHT22;6021;51.182;3.160;2023-06-22T04:08:16;15.40;99.90
11922;DHT22;6021;51.182;3.160;2023-06-22T04:10:45;15.40;99.90
11922;DHT22;6021;51.182;3.160;2023-06-22T04:13:13;15.40;99.90
11922;DHT22;6021;51.182;3.160;2023-06-22T04:15:41;15.40;99.90
11922;DHT22;6021;51.182;3.160;2023-06-22T04:18:10;15.50;99.90
11922;DHT22;6021;51.182;3.160;2023-06-22T04:20:38;15.50;99.90
11922;DHT22;6021;51.182;3.160;2023-06-22T04:23:07;15.50;99.90
11922;DHT22;6021;51.182;3.160;2023-06-22T04:25:35;15.40;99.90
11922;DHT22;6021;51.182;3.160;2023-06-22T04:28:04;15.60;99.90
11922;DHT22;6021;51.182;3.160;2023-06-22T04:30:33;15.60;99.90
11922;DHT22;6021;51.182;3.160;2023-06-22T04:33:01;15.60;99.90
11922;DHT22;6021;51.182;3.160;2023-06-22T04:35:30;15.70;99.90
11922;DHT22;6021;51.182;3.160;2023-06-22T04:37:59;15.70;99.90
11922;DHT22;6021;51.182;3.160;2023-06-22T04:40:27;15.70;99.90
11922;DHT22;6021;51.182;3.160;2023-06-22T04:42:56;15.80;99.90
11922;DHT22;6021;51.182;3.160;2023-06-22T04:45:24;15.80;99.90
11922;DHT22;6021;51.182;3.160;2023-06-22T04:47:52;15.90;99.90
11922;DHT22;6021;51.182;3.160;2023-06-22T04:50:21;15.90;99.90
11922;DHT22;6021;51.182;3.160;2023-06-22T04:52:51;15.90;99.90
11922;DHT22;6021;51.182;3.160;2023-06-22T04:55:20;16.00;99.90
11922;DHT22;6021;51.182;3.160;2023-06-22T04:57:49;16.10;99.90
11922;DHT22;6021;51.182;3.160;2023-06-22T05:00:18;16.20;99.90
11922;DHT22;6021;51.182;3.160;2023-06-22T05:02:48;16.10;99.90
11922;DHT22;6021;51.182;3.160;2023-06-22T05:05:16;16.10;99.90
11922;DHT22;6021;51.182;3.160;2023-06-22T05:07:46;16.20;99.90
11922;DHT22;6021;51.182;3.160;2023-06-22T05:10:18;16.20;99.90
11922;DHT22;6021;51.182;3.160;2023-06-22T05:12:47;16.40;99.90
11922;DHT22;6021;51.182;3.160;2023-06-22T05:15:15;16.30;99.90
11922;DHT22;6021;51.182;3.160;2023-06-22T05:17:45;16.40;99.90
11922;DHT22;6021;51.182;3.160;2023-06-22T05:20:14;16.50;99.90
11922;DHT22;6021;51.182;3.160;2023-06-22T05:22:44;16.60;99.90
11922;DHT22;6021;51.182;3.160;2023-06-22T05:25:13;16.60;99.90
11922;DHT22;6021;51.182;3.160;2023-06-22T05:27:42;16.70;99.90
11922;DHT22;6021;51.182;3.160;2023-06-22T05:30:11;16.80;99.90
11922;DHT22;6021;51.182;3.160;2023-06-22T05:32:40;16.80;99.90
11922;DHT22;6021;51.182;3.160;2023-06-22T05:35:08;16.80;99.90
11922;DHT22;6021;51.182;3.160;2023-06-22T05:37:37;16.80;99.90
11922;DHT22;6021;51.182;3.160;2023-06-22T05:40:06;16.90;99.90
11922;DHT22;6021;51.182;3.160;2023-06-22T05:42:34;17.00;99.90
11922;DHT22;6021;51.182;3.160;2023-06-22T05:45:03;17.00;99.90
11922;DHT22;6021;51.182;3.160;2023-06-22T05:47:31;17.20;99.90
11922;DHT22;6021;51.182;3.160;2023-06-22T05:50:00;17.30;99.90
11922;DHT22;6021;51.182;3.160;2023-06-22T05:52:30;17.30;99.90
11922;DHT22;6021;51.182;3.160;2023-06-22T05:54:58;17.30;99.90
11922;DHT22;6021;51.182;3.160;2023-06-22T05:57:27;17.40;99.90
11922;DHT22;6021;51.182;3.160;2023-06-22T05:59:55;17.50;99.90
11922;DHT22;6021;51.182;3.160;2023-06-22T06:02:23;17.60;99.90
11922;DHT22;6021;51.182;3.160;2023-06-22T06:04:52;17.70;99.90
11922;DHT22;6021;51.182;3.160;2023-06-22T06:07:21;17.70;99.90
11922;DHT22;6021;51.182;3.160;2023-06-22T06:09:50;17.80;99.90
11922;DHT22;6021;51.182;3.160;2023-06-22T06:12:18;18.00;99.90
11922;DHT22;6021;51.182;3.160;2023-06-22T06:14:49;18.00;99.90
11922;DHT22;6021;51.182;3.160;2023-06-22T06:17:18;18.00;99.90
11922;DHT22;6021;51.182;3.160;2023-06-22T06:19:46;18.00;99.90
11922;DHT22;6021;51.182;3.160;2023-06-22T06:22:15;18.10;99.90
11922;DHT22;6021;51.182;3.160;2023-06-22T06:24:43;18.10;99.90
11922;DHT22;6021;51.182;3.160;2023-06-22T06:27:12;18.20;99.90
11922;DHT22;6021;51.182;3.160;2023-06-22T06:29:40;18.20;99.90
11922;DHT22;6021;51.182;3.160;2023-06-22T06:32:09;18.30;99.90
11922;DHT22;6021;51.182;3.160;2023-06-22T06:34:37;18.30;99.90
11922;DHT22;6021;51.182;3.160;2023-06-22T06:37:05;18.40;99.90
11922;DHT22;6021;51.182;3.160;2023-06-22T06:39:34;18.50;99.90
11922;DHT22;6021;51.182;3.160;2023-06-22T06:42:02;18.50;99.90
11922;DHT22;6021;51.182;3.160;2023-06-22T06:44:31;18.60;99.90
11922;DHT22;6021;51.182;3.160;2023-06-22T06:46:59;18.70;99.90
11922;DHT22;6021;51.182;3.160;2023-06-22T06:49:27;18.70;99.90
11922;DHT22;6021;51.182;3.160;2023-06-22T06:51:56;18.70;99.90
11922;DHT22;6021;51.182;3.160;2023-06-22T06:54:24;18.80;99.90
11922;DHT22;6021;51.182;3.160;2023-06-22T06:56:52;18.80;99.90
11922;DHT22;6021;51.182;3.160;2023-06-22T06:59:21;18.90;99.90
11922;DHT22;6021;51.182;3.160;2023-06-22T07:01:49;18.90;99.90
11922;DHT22;6021;51.182;3.160;2023-06-22T07:04:17;19.00;99.90
11922;DHT22;6021;51.182;3.160;2023-06-22T07:06:46;19.00;99.90
11922;DHT22;6021;51.182;3.160;2023-06-22T07:09:14;19.00;99.90
11922;DHT22;6021;51.182;3.160;2023-06-22T07:11:42;19.00;99.90
11922;DHT22;6021;51.182;3.160;2023-06-22T07:14:11;19.10;99.90
11922;DHT22;6021;51.182;3.160;2023-06-22T07:16:39;19.20;99.90
11922;DHT22;6021;51.182;3.160;2023-06-22T07:19:08;19.20;99.90
11922;DHT22;6021;51.182;3.160;2023-06-22T07:21:36;19.30;99.90
11922;DHT22;6021;51.182;3.160;2023-06-22T07:24:05;19.30;99.90
11922;DHT22;6021;51.182;3.160;2023-06-22T07:26:33;19.40;99.90
11922;DHT22;6021;51.182;3.160;2023-06-22T07:29:02;19.50;99.90
11922;DHT22;6021;51.182;3.160;2023-06-22T07:31:31;19.50;99.90
11922;DHT22;6021;51.182;3.160;2023-06-22T07:33:59;19.60;99.90
11922;DHT22;6021;51.182;3.160;2023-06-22T07:36:28;19.60;99.90
11922;DHT22;6021;51.182;3.160;2023-06-22T07:38:57;19.70;99.90
11922;DHT22;6021;51.182;3.160;2023-06-22T07:41:26;19.80;99.90
11922;DHT22;6021;51.182;3.160;2023-06-22T07:43:54;19.80;99.90
11922;DHT22;6021;51.182;3.160;2023-06-22T07:46:23;19.90;99.90
11922;DHT22;6021;51.182;3.160;2023-06-22T07:48:51;20.00;99.90
11922;DHT22;6021;51.182;3.160;2023-06-22T07:51:20;20.00;99.90
11922;DHT22;6021;51.182;3.160;2023-06-22T07:53:48;20.10;99.90
11922;DHT22;6021;51.182;3.160;2023-06-22T07:56:16;20.10;99.90
11922;DHT22;6021;51.182;3.160;2023-06-22T07:58:48;20.20;99.90
11922;DHT22;6021;51.182;3.160;2023-06-22T08:01:17;20.20;99.90
11922;DHT22;6021;51.182;3.160;2023-06-22T08:03:49;20.20;99.90
11922;DHT22;6021;51.182;3.160;2023-06-22T08:06:18;20.30;99.90
11922;DHT22;6021;51.182;3.160;2023-06-22T08:08:46;20.30;99.90
11922;DHT22;6021;51.182;3.160;2023-06-22T08:11:16;20.30;99.90
11922;DHT22;6021;51.182;3.160;2023-06-22T08:13:44;20.40;99.90
11922;DHT22;6021;51.182;3.160;2023-06-22T08:16:12;20.40;99.90
11922;DHT22;6021;51.182;3.160;2023-06-22T08:18:41;20.50;99.90
11922;DHT22;6021;51.182;3.160;2023-06-22T08:21:09;20.50;99.90
11922;DHT22;6021;51.182;3.160;2023-06-22T08:23:38;20.50;99.90
11922;DHT22;6021;51.182;3.160;2023-06-22T08:26:07;20.60;99.90
11922;DHT22;6021;51.182;3.160;2023-06-22T08:28:35;20.60;99.90
11922;DHT22;6021;51.182;3.160;2023-06-22T08:31:03;20.60;99.90
11922;DHT22;6021;51.182;3.160;2023-06-22T08:33:32;20.60;99.90
11922;DHT22;6021;51.182;3.160;2023-06-22T08:36:00;20.60;99.90
11922;DHT22;6021;51.182;3.160;2023-06-22T08:38:29;20.60;99.90
11922;DHT22;6021;51.182;3.160;2023-06-22T08:40:57;20.60;99.90
11922;DHT22;6021;51.182;3.160;2023-06-22T08:43:25;20.60;99.90
11922;DHT22;6021;51.182;3.160;2023-06-22T08:45:54;20.60;99.90
11922;DHT22;6021;51.182;3.160;2023-06-22T08:48:22;20.60;99.90
11922;DHT22;6021;51.182;3.160;2023-06-22T08:50:50;20.60;99.90
11922;DHT22;6021;51.182;3.160;2023-06-22T08:53:19;20.60;99.90
11922;DHT22;6021;51.182;3.160;2023-06-22T08:55:48;20.70;99.90
11922;DHT22;6021;51.182;3.160;2023-06-22T08:58:18;20.70;99.90
11922;DHT22;6021;51.182;3.160;2023-06-22T09:00:48;20.70;99.90
11922;DHT22;6021;51.182;3.160;2023-06-22T09:03:18;20.70;99.90
11922;DHT22;6021;51.182;3.160;2023-06-22T09:05:47;20.70;99.90
11922;DHT22;6021;51.182;3.160;2023-06-22T09:08:16;20.80;99.90
11922;DHT22;6021;51.182;3.160;2023-06-22T09:10:44;20.80;99.90
11922;DHT22;6021;51.182;3.160;2023-06-22T09:13:12;20.80;99.90
11922;DHT22;6021;51.182;3.160;2023-06-22T09:15:41;20.80;99.90
11922;DHT22;6021;51.182;3.160;2023-06-22T09:18:11;20.80;99.90
11922;DHT22;6021;51.182;3.160;2023-06-22T09:20:39;20.80;99.90
11922;DHT22;6021;51.182;3.160;2023-06-22T09:23:08;20.90;99.90
11922;DHT22;6021;51.182;3.160;2023-06-22T09:25:36;20.90;99.90
11922;DHT22;6021;51.182;3.160;2023-06-22T09:28:04;20.80;99.90
11922;DHT22;6021;51.182;3.160;2023-06-22T09:30:33;20.90;99.90
11922;DHT22;6021;51.182;3.160;2023-06-22T09:33:01;21.00;99.90
11922;DHT22;6021;51.182;3.160;2023-06-22T09:35:30;21.00;99.90
11922;DHT22;6021;51.182;3.160;2023-06-22T09:37:59;20.90;99.90
11922;DHT22;6021;51.182;3.160;2023-06-22T09:40:27;20.90;99.90
11922;DHT22;6021;51.182;3.160;2023-06-22T09:42:55;20.90;99.90
11922;DHT22;6021;51.182;3.160;2023-06-22T09:45:24;20.90;99.90
11922;DHT22;6021;51.182;3.160;2023-06-22T09:47:52;20.90;99.90
11922;DHT22;6021;51.182;3.160;2023-06-22T09:50:20;20.90;99.90
11922;DHT22;6021;51.182;3.160;2023-06-22T09:52:49;20.90;99.90
11922;DHT22;6021;51.182;3.160;2023-06-22T09:55:19;20.90;99.90
11922;DHT22;6021;51.182;3.160;2023-06-22T09:57:47;21.00;99.90
11922;DHT22;6021;51.182;3.160;2023-06-22T10:00:17;20.90;99.90
11922;DHT22;6021;51.182;3.160;2023-06-22T10:02:46;21.00;99.90
11922;DHT22;6021;51.182;3.160;2023-06-22T10:05:15;21.00;99.90
11922;DHT22;6021;51.182;3.160;2023-06-22T10:07:43;21.00;99.90
11922;DHT22;6021;51.182;3.160;2023-06-22T10:10:12;21.00;99.90
11922;DHT22;6021;51.182;3.160;2023-06-22T10:12:48;20.90;99.90
11922;DHT22;6021;51.182;3.160;2023-06-22T10:15:17;20.90;99.90
11922;DHT22;6021;51.182;3.160;2023-06-22T10:17:46;21.00;99.90
11922;DHT22;6021;51.182;3.160;2023-06-22T10:20:15;21.00;99.90
11922;DHT22;6021;51.182;3.160;2023-06-22T10:22:45;21.00;99.90
11922;DHT22;6021;51.182;3.160;2023-06-22T10:25:14;21.00;99.90
11922;DHT22;6021;51.182;3.160;2023-06-22T10:27:42;21.10;99.90
11922;DHT22;6021;51.182;3.160;2023-06-22T10:30:12;21.00;99.90
11922;DHT22;6021;51.182;3.160;2023-06-22T10:32:42;21.00;99.90
11922;DHT22;6021;51.182;3.160;2023-06-22T10:35:11;21.00;99.90
11922;DHT22;6021;51.182;3.160;2023-06-22T10:37:41;21.00;99.90
11922;DHT22;6021;51.182;3.160;2023-06-22T10:40:11;21.10;99.90
11922;DHT22;6021;51.182;3.160;2023-06-22T10:42:40;21.00;99.90
11922;DHT22;6021;51.182;3.160;2023-06-22T10:45:09;21.00;99.90
11922;DHT22;6021;51.182;3.160;2023-06-22T10:47:38;21.00;99.90
11922;DHT22;6021;51.182;3.160;2023-06-22T10:50:06;21.00;99.90
11922;DHT22;6021;51.182;3.160;2023-06-22T10:52:35;21.00;99.90
11922;DHT22;6021;51.182;3.160;2023-06-22T10:55:04;20.90;99.90
11922;DHT22;6021;51.182;3.160;2023-06-22T10:57:33;20.90;99.90
11922;DHT22;6021;51.182;3.160;2023-06-22T11:00:01;20.90;99.90
11922;DHT22;6021;51.182;3.160;2023-06-22T11:02:31;20.90;99.90
11922;DHT22;6021;51.182;3.160;2023-06-22T11:05:00;20.90;99.90
11922;DHT22;6021;51.182;3.160;2023-06-22T11:07:28;20.90;99.90
11922;DHT22;6021;51.182;3.160;2023-06-22T11:09:57;20.90;99.90
11922;DHT22;6021;51.182;3.160;2023-06-22T11:12:25;21.00;99.90
11922;DHT22;6021;51.182;3.160;2023-06-22T11:14:54;20.90;99.90
11922;DHT22;6021;51.182;3.160;2023-06-22T11:17:24;20.90;99.90
11922;DHT22;6021;51.182;3.160;2023-06-22T11:19:52;20.90;99.90
11922;DHT22;6021;51.182;3.160;2023-06-22T11:22:21;20.90;99.90
11922;DHT22;6021;51.182;3.160;2023-06-22T11:24:49;20.90;99.90
11922;DHT22;6021;51.182;3.160;2023-06-22T11:27:17;20.80;99.90
11922;DHT22;6021;51.182;3.160;2023-06-22T11:29:46;20.80;99.90
11922;DHT22;6021;51.182;3.160;2023-06-22T11:32:14;20.90;99.90
11922;DHT22;6021;51.182;3.160;2023-06-22T11:34:43;21.00;99.90
11922;DHT22;6021;51.182;3.160;2023-06-22T11:37:11;20.90;99.90
11922;DHT22;6021;51.182;3.160;2023-06-22T11:39:40;21.00;99.90
11922;DHT22;6021;51.182;3.160;2023-06-22T11:42:08;20.90;99.90
11922;DHT22;6021;51.182;3.160;2023-06-22T11:44:37;20.90;99.90
11922;DHT22;6021;51.182;3.160;2023-06-22T11:47:05;20.80;99.90
11922;DHT22;6021;51.182;3.160;2023-06-22T11:49:34;20.80;99.90
11922;DHT22;6021;51.182;3.160;2023-06-22T11:52:03;20.70;99.90
11922;DHT22;6021;51.182;3.160;2023-06-22T11:54:31;20.70;99.90
11922;DHT22;6021;51.182;3.160;2023-06-22T11:56:59;20.70;99.90
11922;DHT22;6021;51.182;3.160;2023-06-22T11:59:28;20.60;99.90
11922;DHT22;6021;51.182;3.160;2023-06-22T12:01:58;20.60;99.90
11922;DHT22;6021;51.182;3.160;2023-06-22T12:04:26;20.50;99.90
11922;DHT22;6021;51.182;3.160;2023-06-22T12:06:54;20.50;99.90
11922;DHT22;6021;51.182;3.160;2023-06-22T12:09:23;20.50;99.90
11922;DHT22;6021;51.182;3.160;2023-06-22T12:11:51;20.40;99.90
11922;DHT22;6021;51.182;3.160;2023-06-22T12:14:19;20.40;99.90
11922;DHT22;6021;51.182;3.160;2023-06-22T12:16:48;20.40;99.90
11922;DHT22;6021;51.182;3.160;2023-06-22T12:19:16;20.30;99.90
11922;DHT22;6021;51.182;3.160;2023-06-22T12:21:44;20.30;99.90
11922;DHT22;6021;51.182;3.160;2023-06-22T12:24:13;20.30;99.90
11922;DHT22;6021;51.182;3.160;2023-06-22T12:26:41;20.30;99.90
11922;DHT22;6021;51.182;3.160;2023-06-22T12:29:10;20.30;99.90
11922;DHT22;6021;51.182;3.160;2023-06-22T12:31:38;20.30;99.90
11922;DHT22;6021;51.182;3.160;2023-06-22T12:34:07;20.20;99.90
11922;DHT22;6021;51.182;3.160;2023-06-22T12:36:35;20.20;99.90
11922;DHT22;6021;51.182;3.160;2023-06-22T12:39:03;20.20;99.90
11922;DHT22;6021;51.182;3.160;2023-06-22T12:41:32;20.20;99.90
11922;DHT22;6021;51.182;3.160;2023-06-22T12:44:01;20.20;99.90
11922;DHT22;6021;51.182;3.160;2023-06-22T12:46:30;20.20;99.90
11922;DHT22;6021;51.182;3.160;2023-06-22T12:49:00;20.20;99.90
11922;DHT22;6021;51.182;3.160;2023-06-22T12:51:28;20.20;99.90
11922;DHT22;6021;51.182;3.160;2023-06-22T12:53:57;20.20;99.90
11922;DHT22;6021;51.182;3.160;2023-06-22T12:56:25;20.20;99.90
11922;DHT22;6021;51.182;3.160;2023-06-22T12:58:53;20.10;99.90
11922;DHT22;6021;51.182;3.160;2023-06-22T13:01:22;20.20;99.90
11922;DHT22;6021;51.182;3.160;2023-06-22T13:03:50;20.20;99.90
11922;DHT22;6021;51.182;3.160;2023-06-22T13:06:19;20.10;99.90
11922;DHT22;6021;51.182;3.160;2023-06-22T13:08:47;20.10;99.90
11922;DHT22;6021;51.182;3.160;2023-06-22T13:11:16;20.10;99.90
11922;DHT22;6021;51.182;3.160;2023-06-22T13:13:45;20.10;99.90
11922;DHT22;6021;51.182;3.160;2023-06-22T13:16:13;20.10;98.90
11922;DHT22;6021;51.182;3.160;2023-06-22T13:18:41;20.10;64.70
11922;DHT22;6021;51.182;3.160;2023-06-22T13:21:10;20.10;62.00
11922;DHT22;6021;51.182;3.160;2023-06-22T13:23:38;20.10;56.80
11922;DHT22;6021;51.182;3.160;2023-06-22T13:26:07;20.10;56.80
11922;DHT22;6021;51.182;3.160;2023-06-22T13:28:35;20.10;57.10
11922;DHT22;6021;51.182;3.160;2023-06-22T13:31:03;20.10;65.70
11922;DHT22;6021;51.182;3.160;2023-06-22T13:33:32;20.20;46.70
11922;DHT22;6021;51.182;3.160;2023-06-22T13:36:00;20.20;51.20
11922;DHT22;6021;51.182;3.160;2023-06-22T13:38:30;20.20;57.50
11922;DHT22;6021;51.182;3.160;2023-06-22T13:40:59;20.20;58.50
11922;DHT22;6021;51.182;3.160;2023-06-22T13:43:28;20.20;67.30
11922;DHT22;6021;51.182;3.160;2023-06-22T13:45:56;20.10;48.60
11922;DHT22;6021;51.182;3.160;2023-06-22T13:48:25;20.10;48.20
11922;DHT22;6021;51.182;3.160;2023-06-22T13:50:55;20.10;56.70
11922;DHT22;6021;51.182;3.160;2023-06-22T13:53:25;20.10;71.90
11922;DHT22;6021;51.182;3.160;2023-06-22T13:55:53;20.10;90.70
11922;DHT22;6021;51.182;3.160;2023-06-22T13:58:22;20.10;94.00
11922;DHT22;6021;51.182;3.160;2023-06-22T14:00:50;20.10;99.80
11922;DHT22;6021;51.182;3.160;2023-06-22T14:03:18;20.20;99.90
11922;DHT22;6021;51.182;3.160;2023-06-22T14:05:47;20.30;99.90
11922;DHT22;6021;51.182;3.160;2023-06-22T14:08:15;20.40;99.90
11922;DHT22;6021;51.182;3.160;2023-06-22T14:10:43;20.40;99.90
11922;DHT22;6021;51.182;3.160;2023-06-22T14:13:12;20.40;99.90
11922;DHT22;6021;51.182;3.160;2023-06-22T14:15:40;20.40;99.90
11922;DHT22;6021;51.182;3.160;2023-06-22T14:18:08;20.50;99.90
11922;DHT22;6021;51.182;3.160;2023-06-22T14:20:37;20.70;99.90
11922;DHT22;6021;51.182;3.160;2023-06-22T14:23:07;20.70;99.90
11922;DHT22;6021;51.182;3.160;2023-06-22T14:25:35;20.70;99.90
11922;DHT22;6021;51.182;3.160;2023-06-22T14:28:03;20.60;99.90
11922;DHT22;6021;51.182;3.160;2023-06-22T14:30:32;20.60;99.90
11922;DHT22;6021;51.182;3.160;2023-06-22T14:33:00;20.50;99.90
11922;DHT22;6021;51.182;3.160;2023-06-22T14:35:29;20.50;99.90
11922;DHT22;6021;51.182;3.160;2023-06-22T14:37:57;20.40;99.90
11922;DHT22;6021;51.182;3.160;2023-06-22T14:40:25;20.50;99.90
11922;DHT22;6021;51.182;3.160;2023-06-22T14:42:54;20.50;99.90
11922;DHT22;6021;51.182;3.160;2023-06-22T14:45:24;20.50;99.70
11922;DHT22;6021;51.182;3.160;2023-06-22T14:47:52;20.50;99.90
11922;DHT22;6021;51.182;3.160;2023-06-22T14:50:20;20.50;99.90
11922;DHT22;6021;51.182;3.160;2023-06-22T14:52:49;20.60;99.90
11922;DHT22;6021;51.182;3.160;2023-06-22T14:55:17;20.60;85.50
11922;DHT22;6021;51.182;3.160;2023-06-22T14:57:46;20.60;91.50
11922;DHT22;6021;51.182;3.160;2023-06-22T15:00:14;20.50;44.90
11922;DHT22;6021;51.182;3.160;2023-06-22T15:02:43;20.50;39.40
11922;DHT22;6021;51.182;3.160;2023-06-22T15:05:11;20.40;38.60
11922;DHT22;6021;51.182;3.160;2023-06-22T15:07:40;20.40;53.30
11922;DHT22;6021;51.182;3.160;2023-06-22T15:10:09;20.50;53.30
11922;DHT22;6021;51.182;3.160;2023-06-22T15:12:37;20.50;50.70
11922;DHT22;6021;51.182;3.160;2023-06-22T15:15:06;20.50;38.60
11922;DHT22;6021;51.182;3.160;2023-06-22T15:17:34;20.50;52.40
11922;DHT22;6021;51.182;3.160;2023-06-22T15:20:03;20.50;60.50
11922;DHT22;6021;51.182;3.160;2023-06-22T15:22:32;20.50;70.00
11922;DHT22;6021;51.182;3.160;2023-06-22T15:25:01;20.70;72.40
11922;DHT22;6021;51.182;3.160;2023-06-22T15:27:30;20.60;49.00
11922;DHT22;6021;51.182;3.160;2023-06-22T15:29:59;20.60;57.50
11922;DHT22;6021;51.182;3.160;2023-06-22T15:32:27;20.60;65.60
11922;DHT22;6021;51.182;3.160;2023-06-22T15:34:56;20.60;75.90
11922;DHT22;6021;51.182;3.160;2023-06-22T15:37:24;20.70;78.70
11922;DHT22;6021;51.182;3.160;2023-06-22T15:39:53;20.70;89.30
11922;DHT22;6021;51.182;3.160;2023-06-22T15:42:23;20.80;93.40
11922;DHT22;6021;51.182;3.160;2023-06-22T15:44:51;20.70;92.00
11922;DHT22;6021;51.182;3.160;2023-06-22T15:47:20;20.70;99.90
11922;DHT22;6021;51.182;3.160;2023-06-22T15:49:50;20.70;99.90
11922;DHT22;6021;51.182;3.160;2023-06-22T15:52:18;20.70;99.90
11922;DHT22;6021;51.182;3.160;2023-06-22T15:54:47;20.70;99.90
11922;DHT22;6021;51.182;3.160;2023-06-22T15:57:18;20.60;99.90
11922;DHT22;6021;51.182;3.160;2023-06-22T15:59:46;20.60;99.90
11922;DHT22;6021;51.182;3.160;2023-06-22T16:02:14;20.60;99.90